Date,TemperatureHighF,TemperatureAvgF,TemperatureLowF,DewpointHighF,DewpointAvgF,DewpointLowF,HumidityHigh,HumidityAvg,HumidityLow,PressureMaxIn,PressureMinIn,WindSpeedMaxMPH,WindSpeedAvgMPH,GustSpeedMaxMPH,PrecipitationSumIn
2014-1-1,39,28,20,26,20,15,87,74,53,30.06,29.85,9,1,9,0.00
2014-1-2,24,16,6,20,9,-3,92,75,57,30.15,29.74,13,4,13,0.00
2014-1-3,24,10,-5,5,-3,-13,67,56,33,30.27,29.94,16,2,16,0.00
2014-1-4,42,27,14,20,10,2,59,48,31,29.94,29.79,18,4,18,0.00
2014-1-5,36,29,7,33,25,1,98,85,46,29.91,29.50,8,0,8,0.00
2014-1-6,7,-6,-14,1,-12,-19,77,77,77,30.18,29.76,20,3,20,0.00
2014-1-7,13,-1,-14,7,-6,-19,77,77,77,30.24,30.09,12,4,12,0.00
2014-1-8,31,17,7,15,9,1,88,69,47,30.30,30.09,11,1,11,0.00
2014-1-9,34,24,12,31,18,7,98,79,54,30.33,30.06,11,2,11,0.00
2014-1-10,44,37,32,43,36,31,98,95,78,30.06,29.53,57,2,57,0.00
2014-1-11,45,39,34,44,37,27,98,95,76,29.68,29.38,17,5,17,0.00
2014-1-12,44,40,30,31,27,25,88,62,49,29.88,29.68,17,4,17,0.00
2014-1-13,50,44,33,40,32,24,85,63,49,29.71,29.50,15,3,15,0.00
2014-1-14,46,31,23,30,23,18,98,76,36,29.74,29.56,14,2,14,0.00
2014-1-15,28,22,16,16,10,5,76,60,48,29.94,29.76,13,5,13,0.00
2014-1-16,31,24,15,30,17,5,98,75,61,29.88,29.50,14,4,15,0.00
2014-1-17,30,18,10,29,7,-4,97,63,35,29.88,29.56,20,4,20,0.00
2014-1-18,26,19,12,21,8,-2,89,65,45,29.88,29.59,13,2,13,0.00
2014-1-19,36,26,15,21,16,12,94,68,45,29.79,29.53,15,5,15,0.00
2014-1-20,43,35,30,27,23,19,79,62,44,29.76,29.50,17,2,17,0.00
2014-1-21,30,14,2,100,3,-19,93,67,34,30.06,29.68,21,4,21,0.00
2014-1-22,19,8,-3,11,-8,-24,86,49,35,30.03,29.79,15,2,15,0.00
2014-1-23,11,2,-4,7,-1,-8,86,86,86,30.41,29.91,19,6,19,0.00
2014-1-24,23,9,-6,14,-3,-9,86,64,33,30.41,29.59,23,4,23,0.00
2014-1-25,33,20,6,30,8,-13,98,63,34,29.76,29.38,29,8,29,0.00
2014-1-26,42,25,5,28,8,-14,76,48,34,29.74,29.38,27,5,27,0.00
2014-1-27,23,5,-6,10,-18,-29,60,32,31,30.24,29.56,30,10,30,0.00
2014-1-28,16,-3,-9,-7,-26,-32,38,32,28,30.27,30.09,10,1,10,0.00
2014-1-29,29,14,1,6,-8,-20,56,37,28,30.12,30.00,12,3,12,0.00
2014-1-30,34,24,13,7,1,-4,47,36,25,30.00,29.65,18,4,18,0.00
2014-1-31,36,31,29,25,15,4,82,54,31,29.97,29.79,9,1,9,0.00
2014-2-1,41,33,30,41,32,25,98,94,79,29.91,29.65,11,1,11,0.00
2014-2-2,32,26,19,31,20,11,98,79,54,30.09,29.85,0,0,0,0.00
2014-2-3,30,18,10,11,7,4,79,64,41,30.21,30.03,0,0,0,0.00
2014-2-4,26,19,13,18,12,4,92,74,49,30.18,29.76,20,2,20,0.00
2014-2-5,30,22,18,25,17,10,97,81,56,30.27,29.65,14,4,14,0.00
2014-2-6,20,10,-4,13,-4,-24,78,53,34,30.30,30.21,12,2,12,0.00
2014-2-7,23,5,-6,-3,-17,-26,37,35,25,30.27,30.15,10,1,10,0.00
2014-2-8,32,18,4,14,-1,-18,66,44,35,30.18,29.91,7,1,7,0.00
2014-2-9,30,20,7,18,8,-5,86,61,33,30.09,29.91,13,3,13,0.00
2014-2-10,22,6,-5,1,-12,-26,57,45,30,30.24,30.06,6,0,6,0.00
2014-2-11,23,0,-10,0,-21,-30,45,35,33,30.33,30.18,6,0,6,0.00
2014-2-12,39,14,-4,10,-7,-23,69,38,21,30.21,29.85,6,0,6,0.00
2014-2-13,47,24,6,14,1,-10,56,38,18,29.88,29.47,12,0,12,0.00
2014-2-14,32,21,13,19,9,2,76,60,46,29.71,29.44,20,2,20,0.00
2014-2-15,36,18,4,13,3,-5,72,54,27,29.94,29.71,11,2,11,0.00
2014-2-16,32,23,14,19,12,5,79,63,41,30.12,29.79,10,2,11,0.00
2014-2-17,34,26,16,32,17,9,96,70,42,30.15,29.56,19,4,19,0.00
2014-2-18,54,41,28,28,22,16,81,51,23,29.91,29.59,17,4,17,0.00
2014-2-19,51,41,34,32,25,21,69,54,34,29.91,29.56,12,3,12,0.00
2014-2-20,57,40,32,55,32,23,98,75,66,29.85,29.29,28,3,28,0.00
2014-2-21,45,37,34,30,19,8,76,50,22,29.76,29.50,24,6,24,0.00
2014-2-22,51,40,30,31,23,16,85,53,36,29.91,29.74,16,2,16,0.00
2014-2-23,35,29,22,30,16,2,90,61,31,30.06,29.85,12,2,12,0.00
2014-2-24,36,24,17,10,6,-2,66,46,23,30.12,30.03,14,5,14,0.00
2014-2-25,28,23,14,11,7,-5,60,50,38,30.06,29.94,15,5,15,0.00
2014-2-26,26,14,4,-1,-6,-11,49,42,24,30.09,29.68,17,5,17,0.00
2014-2-27,22,15,7,4,-9,-19,49,34,22,30.03,29.59,24,6,24,0.00
2014-2-28,40,19,5,4,-10,-20,57,28,18,30.03,29.85,15,2,15,0.00
2014-3-1,53,35,24,23,12,2,75,42,23,30.09,29.85,11,2,11,0.00
2014-3-2,26,20,12,17,11,1,82,67,44,30.12,30.00,12,3,12,0.00
2014-3-3,22,11,4,3,-6,-14,62,47,25,30.27,30.09,12,3,12,0.00
2014-3-4,42,22,6,7,-3,-15,54,34,21,30.18,29.97,8,1,8,0.00
2014-3-5,33,23,16,16,7,2,76,53,31,30.21,30.00,13,4,13,0.00
2014-3-6,46,28,17,19,11,4,75,51,27,30.21,29.94,8,3,8,0.00
2014-3-7,63,39,20,29,20,14,87,52,16,29.94,29.79,9,1,9,0.00
2014-3-8,45,36,25,32,26,14,81,68,52,30.09,29.79,11,3,11,0.00
2014-3-9,51,33,18,30,18,11,98,58,27,30.15,29.82,11,2,11,0.00
2014-3-10,62,48,36,34,30,26,70,52,29,29.82,29.56,15,4,15,0.00
2014-3-11,74,57,42,46,37,28,89,53,18,29.62,29.44,13,2,13,0.00
2014-3-12,48,36,18,37,29,5,98,77,41,29.91,29.26,20,6,20,0.00
2014-3-13,41,28,14,15,11,5,82,52,29,30.06,29.85,12,2,12,0.00
2014-3-14,64,47,34,31,24,14,59,41,24,29.88,29.56,25,5,25,0.00
2014-3-15,61,43,34,31,24,14,82,51,19,30.00,29.79,10,3,10,0.00
2014-3-16,34,28,20,23,11,5,64,49,36,30.06,29.91,24,8,24,0.00
2014-3-17,28,18,15,10,7,5,71,60,44,29.91,29.79,14,4,14,0.00
2014-3-26,50,35,20,9,2,-3,49,26,16,30.09,29.97,12,1,13,0.00
2014-3-27,50,41,33,38,20,2,73,44,24,30.00,29.56,17,2,17,0.00
2014-3-28,52,45,38,47,37,29,91,75,52,30.00,29.47,19,6,19,0.00
2014-3-29,39,36,33,36,32,29,98,87,71,30.03,29.88,13,3,13,0.00
2014-3-30,63,41,26,33,26,20,98,63,22,30.12,29.97,6,1,6,0.00
2014-3-31,72,52,35,33,23,16,76,38,14,30.03,29.76,23,3,23,0.00
2014-4-1,60,55,49,31,26,21,42,34,22,29.97,29.76,10,2,10,0.00
2014-4-2,56,48,42,48,36,25,89,67,40,30.03,29.88,13,2,13,0.00
2014-4-3,67,53,47,63,51,46,98,95,74,29.97,29.56,15,4,15,0.00
2014-4-4,58,46,37,57,40,24,98,80,55,29.91,29.44,27,8,27,0.00
2014-4-5,56,42,33,30,24,20,74,52,26,30.09,29.91,14,2,14,0.00
2014-4-6,63,45,30,35,26,21,87,53,24,30.06,29.85,11,1,11,0.00
2014-4-7,50,44,42,44,35,27,98,74,48,29.85,29.35,57,3,57,0.00
2014-4-8,60,48,37,45,38,32,98,73,41,29.79,29.50,63,3,63,0.00
2014-4-9,69,50,36,36,29,19,82,50,15,29.94,29.79,11,2,11,0.00
2014-4-10,78,59,46,52,32,27,88,39,18,29.91,29.71,15,4,17,0.00
2014-4-11,74,59,48,52,36,16,94,52,13,30.00,29.85,8,1,9,0.00
2014-4-12,82,63,43,44,34,24,55,35,17,30.03,29.76,20,2,20,0.00
2014-4-13,79,70,64,50,46,43,61,43,31,29.97,29.68,17,4,17,0.00
2014-4-14,71,51,32,58,44,28,92,78,36,29.88,29.56,24,6,24,0.00
2014-4-15,40,33,27,29,16,5,89,53,29,30.18,29.85,15,3,15,0.00
2014-4-16,55,39,25,18,13,6,60,37,18,30.27,30.09,15,3,15,0.00
2014-4-17,73,52,35,25,19,15,50,30,14,30.18,30.09,13,2,13,0.00
2014-4-18,76,57,43,37,28,21,65,36,15,30.21,30.09,11,2,11,0.00
2014-4-19,72,54,38,41,30,22,71,43,17,30.24,30.15,13,3,13,0.00
2014-4-20,84,60,39,29,23,14,53,29,11,30.18,29.97,8,1,8,0.00
2014-4-21,77,60,47,53,33,22,82,38,20,30.00,29.82,10,2,12,0.00
2014-4-22,60,54,44,57,35,20,97,52,24,29.94,29.74,17,5,17,0.00
2014-4-23,65,48,34,28,22,14,66,40,16,30.03,29.91,9,2,9,0.00
2014-4-24,71,58,49,30,23,15,47,28,14,30.00,29.65,18,5,18,0.00
2014-4-25,70,58,52,54,34,19,97,47,15,29.82,29.53,18,4,18,0.00
2014-4-26,80,63,49,42,34,25,66,35,18,29.91,29.76,13,3,13,0.00
2014-4-27,78,60,34,37,32,25,80,37,18,29.97,29.76,17,6,17,0.00
2014-4-28,73,59,49,58,45,32,93,64,34,29.82,29.53,23,5,23,0.00
2014-4-29,77,61,52,60,45,19,98,64,13,29.76,29.53,24,3,24,0.00
2014-4-30,67,54,43,52,42,31,97,66,32,29.91,29.74,13,3,13,0.00
2014-5-1,56,48,42,37,31,27,73,54,35,29.88,29.79,19,4,19,0.00
2014-5-2,59,50,46,40,36,30,77,59,36,29.85,29.79,12,4,12,0.00
2014-5-3,72,58,46,40,28,14,73,39,14,29.88,29.71,22,6,22,0.00
2014-5-4,68,58,50,37,24,10,51,28,15,30.00,29.85,14,4,14,0.00
2014-5-5,74,58,46,37,29,17,52,34,22,29.94,29.76,15,5,15,0.00
2014-5-6,81,62,47,37,32,0,100,36,17,29.91,29.82,16,5,16,0.00
2014-5-7,91,71,53,50,41,32,58,36,18,29.97,29.82,15,3,15,0.00
2014-5-8,92,77,65,54,47,40,61,37,18,30.03,29.94,17,4,17,0.00
2014-5-9,85,72,64,56,49,41,65,45,23,30.00,29.82,15,4,15,0.00
2014-5-10,83,67,56,52,37,17,80,40,12,30.03,29.91,13,2,13,0.00
2014-5-11,93,70,56,63,49,30,90,51,20,30.06,29.94,15,2,15,0.00
2014-5-12,86,72,62,68,61,53,98,72,38,30.12,29.97,15,4,15,0.00
2014-5-13,85,70,56,67,60,51,91,74,35,30.18,30.00,17,4,17,0.00
2014-5-14,57,54,52,52,49,47,87,82,75,30.21,30.09,10,2,10,0.00
2014-5-25,91,71,57,50,40,27,74,39,12,30.21,30.06,8,1,8,0.00
2014-5-26,94,75,58,53,47,41,67,40,17,30.12,29.97,11,2,11,0.00
2014-5-27,94,79,68,59,50,39,71,41,16,30.06,29.94,13,2,13,0.00
2014-5-28,93,76,65,54,50,41,63,43,17,30.03,29.97,10,1,10,0.00
2014-5-31,94,84,69,42,31,24,28,15,9,30.24,30.00,11,3,12,0.00
2014-6-1,98,76,60,58,42,33,59,33,11,30.18,29.97,11,2,11,0.00
2014-6-2,83,73,68,67,60,51,91,65,36,30.12,29.97,15,3,15,0.00
2014-6-3,93,78,67,68,53,33,94,51,14,30.03,29.97,13,4,13,0.00
2014-6-4,82,68,61,68,56,47,94,68,40,30.00,29.79,15,3,15,0.00
2014-6-5,84,67,56,57,45,31,93,51,20,30.03,29.91,9,2,9,0.00
2014-6-6,88,70,54,49,39,23,75,38,11,30.09,29.97,11,2,11,0.00
2014-6-7,90,72,57,52,40,28,72,36,12,30.12,29.82,12,2,12,0.00
2014-6-8,78,68,60,64,50,0,92,55,30,30.03,29.74,13,4,13,0.00
2014-6-9,86,70,59,56,46,34,78,47,20,30.06,29.91,10,2,10,0.00
2014-6-10,77,68,63,66,56,0,91,66,40,29.97,29.79,13,2,13,0.00
2014-6-11,84,72,66,66,59,49,96,68,34,29.85,29.76,13,2,13,0.00
2014-6-12,89,72,63,59,53,43,82,55,23,29.94,29.79,13,4,13,0.00
2014-6-13,78,68,59,58,39,24,77,40,15,30.12,29.91,13,4,13,0.00
2014-6-14,86,66,48,42,32,22,67,32,11,30.21,30.03,10,2,10,0.00
2014-6-15,90,73,55,53,43,34,58,36,19,30.12,29.97,17,3,17,0.00
2014-6-16,96,81,71,62,57,50,70,47,22,30.21,30.03,8,2,9,0.00
2014-6-17,97,83,73,62,55,48,62,41,20,30.15,29.97,12,3,12,0.00
2014-6-18,98,79,68,63,59,43,80,53,22,30.12,29.94,25,3,25,0.00
2014-6-19,95,76,66,74,64,49,98,71,30,30.15,30.03,16,3,16,0.00
2014-6-20,90,78,69,67,61,52,91,61,30,30.09,29.91,13,3,13,0.00
2014-6-21,93,77,67,64,55,40,88,53,18,30.06,29.91,7,1,7,0.00
2014-6-22,72,72,71,60,58,57,67,63,59,29.94,29.91,2,0,2,0.00
2014-6-23,97,79,68,65,58,48,79,53,20,29.97,29.88,23,2,23,0.00
2014-6-24,86,73,69,66,62,56,83,70,37,30.00,29.91,8,2,8,0.00
2014-6-25,91,76,66,69,59,47,98,62,25,30.06,29.91,15,2,15,0.00
2014-6-26,92,76,66,63,55,41,86,53,18,30.12,30.00,6,2,6,0.00
2014-6-27,94,77,67,63,56,46,80,52,20,30.12,30.03,14,2,14,0.00
2014-6-28,92,75,70,66,62,52,80,68,28,30.18,30.03,11,1,11,0.00
2014-6-29,91,79,71,64,59,53,77,53,29,30.12,30.00,12,3,12,0.00
2014-6-30,93,77,69,66,62,56,84,62,30,30.09,29.85,10,2,10,0.00
2014-7-1,96,79,66,66,56,32,97,52,11,29.97,29.79,24,4,24,0.00
2014-7-2,88,74,64,62,51,38,82,48,19,30.06,29.85,12,4,14,0.00
2014-7-3,77,66,59,54,44,31,77,49,22,30.24,30.03,11,3,11,0.00
2014-7-4,84,68,52,45,37,27,71,37,14,30.36,30.21,8,1,8,0.00
2014-7-5,90,71,56,46,38,25,62,34,11,30.36,30.15,8,1,8,0.00
2014-7-6,92,74,64,58,50,40,72,44,23,30.15,29.91,12,2,12,0.00
2014-7-7,85,75,70,66,57,48,73,55,41,29.94,29.79,12,3,12,0.00
2014-7-8,88,76,68,69,57,45,96,57,24,29.94,29.74,18,5,18,0.00
2014-7-9,84,70,62,56,51,38,77,53,22,30.00,29.91,13,3,13,0.00
2014-7-10,84,71,62,51,42,28,64,39,13,30.27,30.06,7,2,7,0.00
2014-7-11,95,74,58,50,42,30,68,37,11,30.27,30.15,11,1,11,0.00
2014-7-12,84,74,67,64,55,46,68,51,34,30.24,30.03,13,2,13,0.00
2014-7-13,93,78,72,66,61,50,70,57,27,30.06,29.97,14,4,14,0.00
2014-7-14,95,74,66,64,56,41,79,59,18,30.00,29.85,15,2,15,0.00
2014-7-15,74,64,56,59,43,33,80,49,24,30.03,29.91,14,4,14,0.00
2014-7-16,80,64,53,51,41,31,84,49,18,30.09,29.97,10,2,10,0.00
2014-7-17,82,66,50,49,37,25,77,41,15,30.21,30.09,8,1,8,0.00
2014-7-18,86,68,54,48,41,33,71,41,19,30.24,30.09,10,2,10,0.00
2014-7-19,81,68,57,55,48,43,77,51,30,30.18,30.03,6,1,8,0.00
2014-7-20,66,60,57,59,52,50,84,76,60,30.15,30.06,2,0,2,0.00